sensor_id;sensor_type;location;lat;lon;timestamp;P1;durP1;ratioP1;P2;durP2;ratioP2
12474;SDS011;6302;42.624;23.334;2022-11-27T00:00:31;11.73;;;9.40;;
12474;SDS011;6302;42.624;23.334;2022-11-27T00:02:58;13.97;;;10.20;;
12474;SDS011;6302;42.624;23.334;2022-11-27T00:05:25;15.37;;;10.63;;
12474;SDS011;6302;42.624;23.334;2022-11-27T00:07:52;14.27;;;10.50;;
12474;SDS011;6302;42.624;23.334;2022-11-27T00:10:18;12.50;;;9.80;;
12474;SDS011;6302;42.624;23.334;2022-11-27T00:12:47;12.83;;;9.77;;
12474;SDS011;6302;42.624;23.334;2022-11-27T00:15:13;13.90;;;10.37;;
12474;SDS011;6302;42.624;23.334;2022-11-27T00:17:40;13.20;;;9.83;;
12474;SDS011;6302;42.624;23.334;2022-11-27T00:20:07;14.40;;;9.90;;
12474;SDS011;6302;42.624;23.334;2022-11-27T00:22:34;14.67;;;10.07;;
12474;SDS011;6302;42.624;23.334;2022-11-27T00:25:01;15.40;;;10.83;;
12474;SDS011;6302;42.624;23.334;2022-11-27T00:27:28;21.40;;;11.97;;
12474;SDS011;6302;42.624;23.334;2022-11-27T00:29:56;20.77;;;13.13;;
12474;SDS011;6302;42.624;23.334;2022-11-27T00:32:23;17.63;;;12.23;;
12474;SDS011;6302;42.624;23.334;2022-11-27T00:34:50;16.23;;;10.77;;
12474;SDS011;6302;42.624;23.334;2022-11-27T00:37:17;15.77;;;10.93;;
12474;SDS011;6302;42.624;23.334;2022-11-27T00:39:43;19.17;;;11.03;;
12474;SDS011;6302;42.624;23.334;2022-11-27T00:42:10;17.63;;;10.90;;
12474;SDS011;6302;42.624;23.334;2022-11-27T00:44:37;15.63;;;11.13;;
12474;SDS011;6302;42.624;23.334;2022-11-27T00:47:05;16.07;;;11.27;;
12474;SDS011;6302;42.624;23.334;2022-11-27T00:49:32;18.03;;;13.40;;
12474;SDS011;6302;42.624;23.334;2022-11-27T00:51:59;18.43;;;12.17;;
12474;SDS011;6302;42.624;23.334;2022-11-27T00:54:25;16.33;;;11.40;;
12474;SDS011;6302;42.624;23.334;2022-11-27T00:56:52;15.00;;;10.97;;
12474;SDS011;6302;42.624;23.334;2022-11-27T00:59:19;14.33;;;10.50;;
12474;SDS011;6302;42.624;23.334;2022-11-27T01:01:46;15.77;;;9.97;;
12474;SDS011;6302;42.624;23.334;2022-11-27T01:04:14;13.50;;;9.23;;
12474;SDS011;6302;42.624;23.334;2022-11-27T01:06:42;17.47;;;11.40;;
12474;SDS011;6302;42.624;23.334;2022-11-27T01:09:09;22.43;;;12.53;;
12474;SDS011;6302;42.624;23.334;2022-11-27T01:11:38;19.43;;;12.57;;
12474;SDS011;6302;42.624;23.334;2022-11-27T01:14:06;25.77;;;15.17;;
12474;SDS011;6302;42.624;23.334;2022-11-27T01:16:34;22.03;;;15.60;;
12474;SDS011;6302;42.624;23.334;2022-11-27T01:19:02;24.37;;;15.60;;
12474;SDS011;6302;42.624;23.334;2022-11-27T01:21:31;24.10;;;16.63;;
12474;SDS011;6302;42.624;23.334;2022-11-27T01:24:00;26.77;;;15.17;;
12474;SDS011;6302;42.624;23.334;2022-11-27T01:26:27;31.93;;;16.37;;
12474;SDS011;6302;42.624;23.334;2022-11-27T01:28:55;29.00;;;15.57;;
12474;SDS011;6302;42.624;23.334;2022-11-27T01:31:24;26.13;;;14.17;;
12474;SDS011;6302;42.624;23.334;2022-11-27T01:33:53;20.73;;;13.13;;
12474;SDS011;6302;42.624;23.334;2022-11-27T01:36:21;17.93;;;13.17;;
12474;SDS011;6302;42.624;23.334;2022-11-27T01:38:50;16.00;;;11.47;;
12474;SDS011;6302;42.624;23.334;2022-11-27T01:41:18;17.87;;;12.43;;
12474;SDS011;6302;42.624;23.334;2022-11-27T01:43:46;16.70;;;11.80;;
12474;SDS011;6302;42.624;23.334;2022-11-27T01:46:24;15.43;;;11.47;;
12474;SDS011;6302;42.624;23.334;2022-11-27T01:48:56;58.83;;;29.67;;
12474;SDS011;6302;42.624;23.334;2022-11-27T01:51:28;30.37;;;19.07;;
12474;SDS011;6302;42.624;23.334;2022-11-27T01:53:58;34.00;;;19.07;;
12474;SDS011;6302;42.624;23.334;2022-11-27T01:56:25;91.27;;;41.20;;
12474;SDS011;6302;42.624;23.334;2022-11-27T01:58:53;87.23;;;39.50;;
12474;SDS011;6302;42.624;23.334;2022-11-27T02:01:22;48.47;;;25.97;;
12474;SDS011;6302;42.624;23.334;2022-11-27T02:03:50;67.87;;;31.93;;
12474;SDS011;6302;42.624;23.334;2022-11-27T02:06:17;73.43;;;35.23;;
12474;SDS011;6302;42.624;23.334;2022-11-27T02:08:44;57.30;;;29.87;;
12474;SDS011;6302;42.624;23.334;2022-11-27T02:11:14;28.00;;;17.27;;
12474;SDS011;6302;42.624;23.334;2022-11-27T02:13:47;22.70;;;16.23;;
12474;SDS011;6302;42.624;23.334;2022-11-27T02:16:22;25.30;;;17.13;;
12474;SDS011;6302;42.624;23.334;2022-11-27T02:19:03;27.27;;;17.67;;
12474;SDS011;6302;42.624;23.334;2022-11-27T02:21:41;28.90;;;18.87;;
12474;SDS011;6302;42.624;23.334;2022-11-27T02:30:14;24.47;;;16.63;;
12474;SDS011;6302;42.624;23.334;2022-11-27T02:32:43;25.10;;;16.60;;
12474;SDS011;6302;42.624;23.334;2022-11-27T02:35:16;26.50;;;18.23;;
12474;SDS011;6302;42.624;23.334;2022-11-27T02:37:49;27.33;;;18.23;;
12474;SDS011;6302;42.624;23.334;2022-11-27T02:40:26;21.87;;;15.43;;
12474;SDS011;6302;42.624;23.334;2022-11-27T02:42:58;22.87;;;16.00;;
12474;SDS011;6302;42.624;23.334;2022-11-27T02:45:30;24.30;;;17.00;;
12474;SDS011;6302;42.624;23.334;2022-11-27T02:48:01;26.20;;;18.20;;
12474;SDS011;6302;42.624;23.334;2022-11-27T02:50:29;26.13;;;17.40;;
12474;SDS011;6302;42.624;23.334;2022-11-27T02:53:00;29.90;;;18.47;;
12474;SDS011;6302;42.624;23.334;2022-11-27T02:55:32;27.10;;;17.27;;
12474;SDS011;6302;42.624;23.334;2022-11-27T02:58:03;27.17;;;18.47;;
12474;SDS011;6302;42.624;23.334;2022-11-27T03:00:35;23.80;;;17.97;;
12474;SDS011;6302;42.624;23.334;2022-11-27T03:03:04;28.10;;;19.27;;
12474;SDS011;6302;42.624;23.334;2022-11-27T03:05:34;27.70;;;18.80;;
12474;SDS011;6302;42.624;23.334;2022-11-27T03:08:05;29.30;;;18.83;;
12474;SDS011;6302;42.624;23.334;2022-11-27T03:10:39;27.40;;;18.43;;
12474;SDS011;6302;42.624;23.334;2022-11-27T03:13:11;28.90;;;19.53;;
12474;SDS011;6302;42.624;23.334;2022-11-27T03:15:40;27.33;;;20.03;;
12474;SDS011;6302;42.624;23.334;2022-11-27T03:18:16;28.73;;;18.63;;
12474;SDS011;6302;42.624;23.334;2022-11-27T03:20:48;30.77;;;20.07;;
12474;SDS011;6302;42.624;23.334;2022-11-27T03:23:21;31.83;;;19.50;;
12474;SDS011;6302;42.624;23.334;2022-11-27T03:25:48;31.10;;;19.40;;
12474;SDS011;6302;42.624;23.334;2022-11-27T03:28:14;31.50;;;19.60;;
12474;SDS011;6302;42.624;23.334;2022-11-27T03:30:43;27.20;;;19.03;;
12474;SDS011;6302;42.624;23.334;2022-11-27T03:33:10;29.03;;;18.67;;
12474;SDS011;6302;42.624;23.334;2022-11-27T03:35:37;29.30;;;17.50;;
12474;SDS011;6302;42.624;23.334;2022-11-27T03:38:04;30.83;;;20.37;;
12474;SDS011;6302;42.624;23.334;2022-11-27T03:40:32;32.37;;;19.30;;
12474;SDS011;6302;42.624;23.334;2022-11-27T03:43:08;40.87;;;20.83;;
12474;SDS011;6302;42.624;23.334;2022-11-27T03:45:45;39.17;;;21.57;;
12474;SDS011;6302;42.624;23.334;2022-11-27T03:48:22;36.20;;;20.83;;
12474;SDS011;6302;42.624;23.334;2022-11-27T03:50:59;40.70;;;22.37;;
12474;SDS011;6302;42.624;23.334;2022-11-27T03:53:36;41.17;;;21.27;;
12474;SDS011;6302;42.624;23.334;2022-11-27T03:56:11;36.87;;;21.97;;
12474;SDS011;6302;42.624;23.334;2022-11-27T03:58:45;37.57;;;21.73;;
12474;SDS011;6302;42.624;23.334;2022-11-27T04:01:18;38.10;;;20.60;;
12474;SDS011;6302;42.624;23.334;2022-11-27T04:03:48;46.57;;;24.47;;
12474;SDS011;6302;42.624;23.334;2022-11-27T04:06:15;43.97;;;23.77;;
12474;SDS011;6302;42.624;23.334;2022-11-27T04:08:42;50.83;;;26.03;;
12474;SDS011;6302;42.624;23.334;2022-11-27T04:11:10;39.77;;;22.30;;
12474;SDS011;6302;42.624;23.334;2022-11-27T04:13:37;40.20;;;21.87;;
12474;SDS011;6302;42.624;23.334;2022-11-27T04:16:04;38.20;;;21.03;;
12474;SDS011;6302;42.624;23.334;2022-11-27T04:18:33;45.27;;;24.07;;
12474;SDS011;6302;42.624;23.334;2022-11-27T04:21:00;43.77;;;25.80;;
12474;SDS011;6302;42.624;23.334;2022-11-27T04:23:27;52.97;;;26.87;;
12474;SDS011;6302;42.624;23.334;2022-11-27T04:25:54;50.30;;;25.37;;
12474;SDS011;6302;42.624;23.334;2022-11-27T04:28:21;49.57;;;26.47;;
12474;SDS011;6302;42.624;23.334;2022-11-27T04:30:49;45.93;;;24.37;;
12474;SDS011;6302;42.624;23.334;2022-11-27T04:33:17;48.67;;;24.63;;
12474;SDS011;6302;42.624;23.334;2022-11-27T04:35:45;39.60;;;21.83;;
12474;SDS011;6302;42.624;23.334;2022-11-27T04:38:12;38.37;;;21.00;;
12474;SDS011;6302;42.624;23.334;2022-11-27T04:40:39;46.33;;;22.03;;
12474;SDS011;6302;42.624;23.334;2022-11-27T04:43:05;40.10;;;21.23;;
12474;SDS011;6302;42.624;23.334;2022-11-27T04:45:32;40.73;;;22.17;;
12474;SDS011;6302;42.624;23.334;2022-11-27T04:47:59;40.17;;;21.63;;
12474;SDS011;6302;42.624;23.334;2022-11-27T04:50:26;38.13;;;20.63;;
12474;SDS011;6302;42.624;23.334;2022-11-27T04:52:54;37.27;;;21.33;;
12474;SDS011;6302;42.624;23.334;2022-11-27T04:55:22;41.33;;;22.30;;
12474;SDS011;6302;42.624;23.334;2022-11-27T04:57:48;37.30;;;20.90;;
12474;SDS011;6302;42.624;23.334;2022-11-27T05:00:16;33.90;;;19.40;;
12474;SDS011;6302;42.624;23.334;2022-11-27T05:02:43;43.30;;;20.03;;
12474;SDS011;6302;42.624;23.334;2022-11-27T05:05:10;32.40;;;18.97;;
12474;SDS011;6302;42.624;23.334;2022-11-27T05:07:37;57.53;;;19.27;;
12474;SDS011;6302;42.624;23.334;2022-11-27T05:10:05;40.10;;;23.77;;
12474;SDS011;6302;42.624;23.334;2022-11-27T05:12:33;38.77;;;20.10;;
12474;SDS011;6302;42.624;23.334;2022-11-27T05:15:02;35.83;;;20.10;;
12474;SDS011;6302;42.624;23.334;2022-11-27T05:17:30;40.83;;;20.70;;
12474;SDS011;6302;42.624;23.334;2022-11-27T05:19:56;40.27;;;20.10;;
12474;SDS011;6302;42.624;23.334;2022-11-27T05:22:23;39.80;;;19.90;;
12474;SDS011;6302;42.624;23.334;2022-11-27T05:24:50;38.63;;;20.40;;
12474;SDS011;6302;42.624;23.334;2022-11-27T05:27:18;41.70;;;21.67;;
12474;SDS011;6302;42.624;23.334;2022-11-27T05:29:45;38.13;;;20.70;;
12474;SDS011;6302;42.624;23.334;2022-11-27T05:32:12;40.70;;;21.70;;
12474;SDS011;6302;42.624;23.334;2022-11-27T05:34:38;40.43;;;22.13;;
12474;SDS011;6302;42.624;23.334;2022-11-27T05:37:05;42.03;;;21.20;;
12474;SDS011;6302;42.624;23.334;2022-11-27T05:39:32;43.73;;;24.17;;
12474;SDS011;6302;42.624;23.334;2022-11-27T05:41:59;44.03;;;22.00;;
12474;SDS011;6302;42.624;23.334;2022-11-27T05:44:27;39.43;;;21.63;;
12474;SDS011;6302;42.624;23.334;2022-11-27T05:46:54;39.17;;;20.90;;
12474;SDS011;6302;42.624;23.334;2022-11-27T05:49:21;37.43;;;21.23;;
12474;SDS011;6302;42.624;23.334;2022-11-27T05:51:48;36.87;;;21.17;;
12474;SDS011;6302;42.624;23.334;2022-11-27T05:54:14;34.63;;;20.97;;
12474;SDS011;6302;42.624;23.334;2022-11-27T05:56:41;36.33;;;21.57;;
12474;SDS011;6302;42.624;23.334;2022-11-27T05:59:08;37.53;;;22.27;;
12474;SDS011;6302;42.624;23.334;2022-11-27T06:01:37;42.33;;;22.20;;
12474;SDS011;6302;42.624;23.334;2022-11-27T06:04:04;37.07;;;22.57;;
12474;SDS011;6302;42.624;23.334;2022-11-27T06:06:30;37.73;;;20.03;;
12474;SDS011;6302;42.624;23.334;2022-11-27T06:08:57;38.07;;;21.50;;
12474;SDS011;6302;42.624;23.334;2022-11-27T06:11:24;38.87;;;20.87;;
12474;SDS011;6302;42.624;23.334;2022-11-27T06:13:51;38.10;;;22.27;;
12474;SDS011;6302;42.624;23.334;2022-11-27T06:16:18;40.53;;;24.30;;
12474;SDS011;6302;42.624;23.334;2022-11-27T06:18:49;42.37;;;21.37;;
12474;SDS011;6302;42.624;23.334;2022-11-27T06:21:16;35.57;;;21.33;;
12474;SDS011;6302;42.624;23.334;2022-11-27T06:23:43;40.17;;;21.43;;
12474;SDS011;6302;42.624;23.334;2022-11-27T06:26:11;40.03;;;21.90;;
12474;SDS011;6302;42.624;23.334;2022-11-27T06:28:40;38.80;;;21.13;;
12474;SDS011;6302;42.624;23.334;2022-11-27T06:31:08;42.57;;;23.57;;
12474;SDS011;6302;42.624;23.334;2022-11-27T06:33:35;39.13;;;23.97;;
12474;SDS011;6302;42.624;23.334;2022-11-27T06:36:04;39.53;;;22.77;;
12474;SDS011;6302;42.624;23.334;2022-11-27T06:38:32;48.00;;;24.33;;
12474;SDS011;6302;42.624;23.334;2022-11-27T06:41:03;37.17;;;21.27;;
12474;SDS011;6302;42.624;23.334;2022-11-27T06:43:30;36.23;;;22.13;;
12474;SDS011;6302;42.624;23.334;2022-11-27T06:45:58;43.23;;;23.77;;
12474;SDS011;6302;42.624;23.334;2022-11-27T06:48:25;43.83;;;24.00;;
12474;SDS011;6302;42.624;23.334;2022-11-27T06:50:52;40.93;;;23.23;;
12474;SDS011;6302;42.624;23.334;2022-11-27T06:53:20;36.70;;;22.00;;
12474;SDS011;6302;42.624;23.334;2022-11-27T06:55:47;43.80;;;23.33;;
12474;SDS011;6302;42.624;23.334;2022-11-27T06:58:14;38.00;;;22.80;;
12474;SDS011;6302;42.624;23.334;2022-11-27T07:00:41;30.40;;;19.27;;
12474;SDS011;6302;42.624;23.334;2022-11-27T07:03:08;34.30;;;21.23;;
12474;SDS011;6302;42.624;23.334;2022-11-27T07:05:34;34.40;;;21.67;;
12474;SDS011;6302;42.624;23.334;2022-11-27T07:08:02;36.20;;;21.73;;
12474;SDS011;6302;42.624;23.334;2022-11-27T07:10:33;35.73;;;19.93;;
12474;SDS011;6302;42.624;23.334;2022-11-27T07:13:00;39.30;;;22.17;;
12474;SDS011;6302;42.624;23.334;2022-11-27T07:15:27;37.33;;;22.30;;
12474;SDS011;6302;42.624;23.334;2022-11-27T07:17:54;39.43;;;22.13;;
12474;SDS011;6302;42.624;23.334;2022-11-27T07:20:21;40.83;;;24.73;;
12474;SDS011;6302;42.624;23.334;2022-11-27T07:22:48;36.43;;;21.77;;
12474;SDS011;6302;42.624;23.334;2022-11-27T07:25:14;38.07;;;21.63;;
12474;SDS011;6302;42.624;23.334;2022-11-27T07:27:43;36.17;;;21.77;;
12474;SDS011;6302;42.624;23.334;2022-11-27T07:30:10;46.43;;;25.80;;
12474;SDS011;6302;42.624;23.334;2022-11-27T07:32:37;49.17;;;24.90;;
12474;SDS011;6302;42.624;23.334;2022-11-27T07:35:04;40.57;;;22.70;;
12474;SDS011;6302;42.624;23.334;2022-11-27T07:37:32;40.10;;;23.20;;
12474;SDS011;6302;42.624;23.334;2022-11-27T07:39:58;42.57;;;23.57;;
12474;SDS011;6302;42.624;23.334;2022-11-27T07:42:26;40.97;;;23.30;;
12474;SDS011;6302;42.624;23.334;2022-11-27T07:44:55;50.90;;;28.53;;
12474;SDS011;6302;42.624;23.334;2022-11-27T07:47:22;61.57;;;33.13;;
12474;SDS011;6302;42.624;23.334;2022-11-27T07:49:49;43.10;;;23.87;;
12474;SDS011;6302;42.624;23.334;2022-11-27T07:52:16;44.93;;;25.23;;
12474;SDS011;6302;42.624;23.334;2022-11-27T07:54:42;39.70;;;24.00;;
12474;SDS011;6302;42.624;23.334;2022-11-27T07:57:09;41.60;;;24.83;;
12474;SDS011;6302;42.624;23.334;2022-11-27T07:59:36;45.37;;;24.30;;
12474;SDS011;6302;42.624;23.334;2022-11-27T08:02:04;45.47;;;26.73;;
12474;SDS011;6302;42.624;23.334;2022-11-27T08:04:31;58.30;;;30.33;;
12474;SDS011;6302;42.624;23.334;2022-11-27T08:06:58;39.47;;;24.80;;
12474;SDS011;6302;42.624;23.334;2022-11-27T08:09:25;42.17;;;25.00;;
12474;SDS011;6302;42.624;23.334;2022-11-27T08:11:54;42.07;;;25.00;;
12474;SDS011;6302;42.624;23.334;2022-11-27T08:14:21;42.70;;;25.17;;
12474;SDS011;6302;42.624;23.334;2022-11-27T08:16:48;42.77;;;24.33;;
12474;SDS011;6302;42.624;23.334;2022-11-27T08:19:16;39.33;;;24.07;;
12474;SDS011;6302;42.624;23.334;2022-11-27T08:21:43;40.67;;;24.97;;
12474;SDS011;6302;42.624;23.334;2022-11-27T08:24:09;45.13;;;26.03;;
12474;SDS011;6302;42.624;23.334;2022-11-27T08:26:37;44.00;;;26.40;;
12474;SDS011;6302;42.624;23.334;2022-11-27T08:29:03;44.53;;;27.10;;
12474;SDS011;6302;42.624;23.334;2022-11-27T08:31:31;45.10;;;26.67;;
12474;SDS011;6302;42.624;23.334;2022-11-27T08:33:58;42.40;;;25.17;;
12474;SDS011;6302;42.624;23.334;2022-11-27T08:36:27;39.93;;;24.30;;
12474;SDS011;6302;42.624;23.334;2022-11-27T08:38:54;40.90;;;25.10;;
12474;SDS011;6302;42.624;23.334;2022-11-27T08:41:21;37.70;;;25.40;;
12474;SDS011;6302;42.624;23.334;2022-11-27T08:43:47;42.10;;;28.10;;
12474;SDS011;6302;42.624;23.334;2022-11-27T08:46:14;43.03;;;27.63;;
12474;SDS011;6302;42.624;23.334;2022-11-27T08:48:41;47.03;;;27.33;;
12474;SDS011;6302;42.624;23.334;2022-11-27T08:51:09;42.20;;;27.53;;
12474;SDS011;6302;42.624;23.334;2022-11-27T08:53:38;43.17;;;27.63;;
12474;SDS011;6302;42.624;23.334;2022-11-27T08:56:06;43.27;;;29.53;;
12474;SDS011;6302;42.624;23.334;2022-11-27T08:58:33;40.70;;;27.23;;
12474;SDS011;6302;42.624;23.334;2022-11-27T09:01:05;44.23;;;27.67;;
12474;SDS011;6302;42.624;23.334;2022-11-27T09:03:33;38.77;;;25.97;;
12474;SDS011;6302;42.624;23.334;2022-11-27T09:06:00;37.87;;;25.17;;
12474;SDS011;6302;42.624;23.334;2022-11-27T09:08:30;35.37;;;22.93;;
12474;SDS011;6302;42.624;23.334;2022-11-27T09:10:59;32.27;;;22.23;;
12474;SDS011;6302;42.624;23.334;2022-11-27T09:13:28;31.70;;;22.90;;
12474;SDS011;6302;42.624;23.334;2022-11-27T09:15:55;34.77;;;23.27;;
12474;SDS011;6302;42.624;23.334;2022-11-27T09:18:22;34.70;;;22.20;;
12474;SDS011;6302;42.624;23.334;2022-11-27T09:20:53;36.60;;;23.40;;
12474;SDS011;6302;42.624;23.334;2022-11-27T09:23:22;36.77;;;24.53;;
12474;SDS011;6302;42.624;23.334;2022-11-27T09:25:49;36.17;;;23.73;;
12474;SDS011;6302;42.624;23.334;2022-11-27T09:28:17;36.40;;;24.93;;
12474;SDS011;6302;42.624;23.334;2022-11-27T09:30:45;39.87;;;26.53;;
12474;SDS011;6302;42.624;23.334;2022-11-27T09:33:11;40.57;;;27.40;;
12474;SDS011;6302;42.624;23.334;2022-11-27T09:35:38;40.23;;;28.40;;
12474;SDS011;6302;42.624;23.334;2022-11-27T09:38:05;37.93;;;25.80;;
12474;SDS011;6302;42.624;23.334;2022-11-27T09:40:33;37.23;;;25.03;;
12474;SDS011;6302;42.624;23.334;2022-11-27T09:43:01;35.43;;;23.33;;
12474;SDS011;6302;42.624;23.334;2022-11-27T09:45:36;32.10;;;22.60;;
12474;SDS011;6302;42.624;23.334;2022-11-27T09:48:10;34.57;;;23.77;;
12474;SDS011;6302;42.624;23.334;2022-11-27T09:50:41;40.00;;;26.37;;
12474;SDS011;6302;42.624;23.334;2022-11-27T09:53:18;32.77;;;22.77;;
12474;SDS011;6302;42.624;23.334;2022-11-27T09:55:50;34.27;;;23.27;;
12474;SDS011;6302;42.624;23.334;2022-11-27T09:58:22;30.73;;;19.57;;
12474;SDS011;6302;42.624;23.334;2022-11-27T10:01:01;26.37;;;18.47;;
12474;SDS011;6302;42.624;23.334;2022-11-27T10:03:36;23.53;;;17.70;;
12474;SDS011;6302;42.624;23.334;2022-11-27T10:06:09;25.37;;;17.33;;
12474;SDS011;6302;42.624;23.334;2022-11-27T10:08:46;22.63;;;17.37;;
12474;SDS011;6302;42.624;23.334;2022-11-27T10:11:22;26.60;;;19.30;;
12474;SDS011;6302;42.624;23.334;2022-11-27T10:13:57;22.43;;;15.53;;
12474;SDS011;6302;42.624;23.334;2022-11-27T10:16:38;24.07;;;17.00;;
12474;SDS011;6302;42.624;23.334;2022-11-27T10:19:11;25.37;;;17.87;;
12474;SDS011;6302;42.624;23.334;2022-11-27T10:21:51;30.73;;;19.57;;
12474;SDS011;6302;42.624;23.334;2022-11-27T10:24:22;26.57;;;19.43;;
12474;SDS011;6302;42.624;23.334;2022-11-27T10:27:02;27.10;;;18.27;;
12474;SDS011;6302;42.624;23.334;2022-11-27T10:29:42;26.70;;;17.97;;
12474;SDS011;6302;42.624;23.334;2022-11-27T10:32:15;26.47;;;18.90;;
12474;SDS011;6302;42.624;23.334;2022-11-27T10:34:44;25.63;;;17.37;;
12474;SDS011;6302;42.624;23.334;2022-11-27T10:37:16;27.17;;;17.23;;
12474;SDS011;6302;42.624;23.334;2022-11-27T10:39:49;20.97;;;15.20;;
12474;SDS011;6302;42.624;23.334;2022-11-27T10:42:21;25.90;;;17.50;;
12474;SDS011;6302;42.624;23.334;2022-11-27T10:44:54;23.60;;;17.27;;
12474;SDS011;6302;42.624;23.334;2022-11-27T10:47:26;23.63;;;16.13;;
12474;SDS011;6302;42.624;23.334;2022-11-27T10:49:54;23.13;;;15.97;;
12474;SDS011;6302;42.624;23.334;2022-11-27T10:52:22;21.20;;;14.73;;
12474;SDS011;6302;42.624;23.334;2022-11-27T10:54:50;23.63;;;16.93;;
12474;SDS011;6302;42.624;23.334;2022-11-27T10:57:34;21.27;;;14.50;;
12474;SDS011;6302;42.624;23.334;2022-11-27T11:00:11;21.00;;;14.30;;
12474;SDS011;6302;42.624;23.334;2022-11-27T11:02:42;19.13;;;14.23;;
12474;SDS011;6302;42.624;23.334;2022-11-27T11:05:09;22.67;;;16.40;;
12474;SDS011;6302;42.624;23.334;2022-11-27T11:07:38;20.30;;;14.17;;
12474;SDS011;6302;42.624;23.334;2022-11-27T11:10:06;19.80;;;14.70;;
12474;SDS011;6302;42.624;23.334;2022-11-27T11:13:01;22.37;;;15.50;;
12474;SDS011;6302;42.624;23.334;2022-11-27T11:15:41;29.57;;;14.87;;
12474;SDS011;6302;42.624;23.334;2022-11-27T11:18:16;30.07;;;18.13;;
12474;SDS011;6302;42.624;23.334;2022-11-27T11:20:45;24.77;;;16.27;;
12474;SDS011;6302;42.624;23.334;2022-11-27T11:23:21;22.97;;;16.40;;
12474;SDS011;6302;42.624;23.334;2022-11-27T11:25:51;23.30;;;16.87;;
12474;SDS011;6302;42.624;23.334;2022-11-27T11:28:20;22.07;;;15.87;;
12474;SDS011;6302;42.624;23.334;2022-11-27T11:30:52;21.00;;;14.00;;
12474;SDS011;6302;42.624;23.334;2022-11-27T11:33:24;20.73;;;13.27;;
12474;SDS011;6302;42.624;23.334;2022-11-27T11:35:52;20.57;;;14.37;;
12474;SDS011;6302;42.624;23.334;2022-11-27T11:38:23;20.73;;;13.27;;
12474;SDS011;6302;42.624;23.334;2022-11-27T11:40:59;18.87;;;13.80;;
12474;SDS011;6302;42.624;23.334;2022-11-27T11:43:27;19.53;;;14.37;;
12474;SDS011;6302;42.624;23.334;2022-11-27T11:46:02;18.03;;;14.30;;
12474;SDS011;6302;42.624;23.334;2022-11-27T11:48:33;19.60;;;14.63;;
12474;SDS011;6302;42.624;23.334;2022-11-27T11:51:03;19.87;;;14.10;;
12474;SDS011;6302;42.624;23.334;2022-11-27T11:53:37;24.03;;;14.83;;
12474;SDS011;6302;42.624;23.334;2022-11-27T11:56:10;22.07;;;15.67;;
12474;SDS011;6302;42.624;23.334;2022-11-27T11:58:55;21.53;;;14.70;;
12474;SDS011;6302;42.624;23.334;2022-11-27T12:01:27;21.43;;;14.87;;
12474;SDS011;6302;42.624;23.334;2022-11-27T12:04:15;22.13;;;15.27;;
12474;SDS011;6302;42.624;23.334;2022-11-27T12:07:05;21.57;;;14.80;;
12474;SDS011;6302;42.624;23.334;2022-11-27T12:09:44;20.03;;;14.53;;
12474;SDS011;6302;42.624;23.334;2022-11-27T12:12:21;21.07;;;14.50;;
12474;SDS011;6302;42.624;23.334;2022-11-27T12:14:58;22.60;;;14.33;;
12474;SDS011;6302;42.624;23.334;2022-11-27T12:17:34;21.87;;;15.23;;
12474;SDS011;6302;42.624;23.334;2022-11-27T12:20:17;23.90;;;15.03;;
12474;SDS011;6302;42.624;23.334;2022-11-27T12:25:52;22.37;;;14.63;;
12474;SDS011;6302;42.624;23.334;2022-11-27T12:31:25;21.57;;;15.37;;
12474;SDS011;6302;42.624;23.334;2022-11-27T12:34:06;19.10;;;14.40;;
12474;SDS011;6302;42.624;23.334;2022-11-27T12:36:49;19.97;;;14.03;;
12474;SDS011;6302;42.624;23.334;2022-11-27T12:39:29;22.80;;;14.97;;
12474;SDS011;6302;42.624;23.334;2022-11-27T12:42:05;20.50;;;14.17;;
12474;SDS011;6302;42.624;23.334;2022-11-27T12:44:43;24.13;;;15.03;;
12474;SDS011;6302;42.624;23.334;2022-11-27T12:47:21;22.80;;;14.73;;
12474;SDS011;6302;42.624;23.334;2022-11-27T12:49:54;21.77;;;14.60;;
12474;SDS011;6302;42.624;23.334;2022-11-27T12:52:27;20.53;;;14.73;;
12474;SDS011;6302;42.624;23.334;2022-11-27T12:55:00;24.37;;;16.33;;
12474;SDS011;6302;42.624;23.334;2022-11-27T12:57:33;23.07;;;16.87;;
12474;SDS011;6302;42.624;23.334;2022-11-27T13:00:07;22.47;;;16.50;;
12474;SDS011;6302;42.624;23.334;2022-11-27T13:02:41;21.70;;;16.13;;
12474;SDS011;6302;42.624;23.334;2022-11-27T13:05:14;24.03;;;16.83;;
12474;SDS011;6302;42.624;23.334;2022-11-27T13:07:47;22.77;;;15.87;;
12474;SDS011;6302;42.624;23.334;2022-11-27T13:10:21;23.43;;;15.60;;
12474;SDS011;6302;42.624;23.334;2022-11-27T13:12:53;22.70;;;16.27;;
12474;SDS011;6302;42.624;23.334;2022-11-27T13:15:29;27.67;;;17.17;;
12474;SDS011;6302;42.624;23.334;2022-11-27T13:18:01;23.20;;;16.73;;
12474;SDS011;6302;42.624;23.334;2022-11-27T13:20:37;23.43;;;17.10;;
12474;SDS011;6302;42.624;23.334;2022-11-27T13:23:07;27.20;;;19.07;;
12474;SDS011;6302;42.624;23.334;2022-11-27T13:25:35;28.13;;;19.07;;
12474;SDS011;6302;42.624;23.334;2022-11-27T13:28:12;25.63;;;17.33;;
12474;SDS011;6302;42.624;23.334;2022-11-27T13:30:46;23.30;;;16.53;;
12474;SDS011;6302;42.624;23.334;2022-11-27T13:33:18;21.60;;;14.67;;
12474;SDS011;6302;42.624;23.334;2022-11-27T13:35:58;23.67;;;14.47;;
12474;SDS011;6302;42.624;23.334;2022-11-27T13:38:28;22.90;;;15.10;;
12474;SDS011;6302;42.624;23.334;2022-11-27T13:40:57;21.40;;;15.70;;
12474;SDS011;6302;42.624;23.334;2022-11-27T13:43:33;19.90;;;13.87;;
12474;SDS011;6302;42.624;23.334;2022-11-27T13:46:08;18.90;;;14.07;;
12474;SDS011;6302;42.624;23.334;2022-11-27T13:48:41;19.13;;;13.70;;
12474;SDS011;6302;42.624;23.334;2022-11-27T13:51:21;23.37;;;14.13;;
12474;SDS011;6302;42.624;23.334;2022-11-27T13:54:03;16.87;;;11.30;;
12474;SDS011;6302;42.624;23.334;2022-11-27T13:56:33;13.17;;;10.37;;
12474;SDS011;6302;42.624;23.334;2022-11-27T13:59:00;8.00;;;6.00;;
12474;SDS011;6302;42.624;23.334;2022-11-27T14:01:38;6.57;;;4.90;;
12474;SDS011;6302;42.624;23.334;2022-11-27T14:04:05;6.97;;;5.50;;
12474;SDS011;6302;42.624;23.334;2022-11-27T14:06:33;9.13;;;6.63;;
12474;SDS011;6302;42.624;23.334;2022-11-27T14:09:03;5.80;;;5.20;;
12474;SDS011;6302;42.624;23.334;2022-11-27T14:11:36;8.93;;;5.07;;
12474;SDS011;6302;42.624;23.334;2022-11-27T14:14:13;7.97;;;5.90;;
12474;SDS011;6302;42.624;23.334;2022-11-27T14:16:51;7.53;;;6.13;;
12474;SDS011;6302;42.624;23.334;2022-11-27T14:19:25;7.47;;;5.47;;
12474;SDS011;6302;42.624;23.334;2022-11-27T14:21:54;8.63;;;5.93;;
12474;SDS011;6302;42.624;23.334;2022-11-27T14:24:32;8.97;;;6.40;;
12474;SDS011;6302;42.624;23.334;2022-11-27T14:27:14;8.23;;;6.30;;
12474;SDS011;6302;42.624;23.334;2022-11-27T14:29:42;10.53;;;5.33;;
12474;SDS011;6302;42.624;23.334;2022-11-27T14:32:10;6.67;;;5.70;;
12474;SDS011;6302;42.624;23.334;2022-11-27T14:34:38;5.83;;;5.03;;
12474;SDS011;6302;42.624;23.334;2022-11-27T14:37:05;4.00;;;3.70;;
12474;SDS011;6302;42.624;23.334;2022-11-27T14:39:46;3.60;;;3.27;;
12474;SDS011;6302;42.624;23.334;2022-11-27T14:42:17;5.23;;;2.77;;
12474;SDS011;6302;42.624;23.334;2022-11-27T14:44:46;5.07;;;3.90;;
12474;SDS011;6302;42.624;23.334;2022-11-27T14:47:16;4.63;;;4.13;;
12474;SDS011;6302;42.624;23.334;2022-11-27T14:49:51;4.63;;;3.90;;
12474;SDS011;6302;42.624;23.334;2022-11-27T14:52:19;4.53;;;4.07;;